createdAt,value
2023-04-19T00:00:07.798Z,1029.88
2023-04-19T00:01:12.085Z,1029.88
2023-04-19T00:02:16.328Z,1029.86
2023-04-19T00:03:20.665Z,1029.86
2023-04-19T00:04:24.825Z,1029.86
2023-04-19T00:05:28.958Z,1029.86
2023-04-19T00:06:33.129Z,1029.85
2023-04-19T00:07:37.338Z,1029.83
2023-04-19T00:08:41.516Z,1029.84
2023-04-19T00:09:45.777Z,1029.85
2023-04-19T00:10:49.948Z,1029.81
2023-04-19T00:11:54.190Z,1029.83
2023-04-19T00:12:58.384Z,1029.81
2023-04-19T00:14:02.588Z,1029.79
2023-04-19T00:15:06.770Z,1029.78
2023-04-19T00:16:11.064Z,1029.77
2023-04-19T00:17:15.172Z,1029.77
2023-04-19T00:18:19.409Z,1029.78
2023-04-19T00:19:23.702Z,1029.79
2023-04-19T00:20:27.976Z,1029.80
2023-04-19T00:21:32.155Z,1029.80
2023-04-19T00:22:36.393Z,1029.80
2023-04-19T00:23:40.569Z,1029.80
2023-04-19T00:24:44.889Z,1029.76
2023-04-19T00:25:49.059Z,1029.76
2023-04-19T00:26:53.285Z,1029.75
2023-04-19T00:27:57.504Z,1029.75
2023-04-19T00:29:01.904Z,1029.75
2023-04-19T00:30:05.964Z,1029.76
2023-04-19T00:31:10.222Z,1029.76
2023-04-19T00:32:14.383Z,1029.76
2023-04-19T00:33:18.584Z,1029.76
2023-04-19T00:34:22.881Z,1029.73
2023-04-19T00:35:27.119Z,1029.72
2023-04-19T00:36:31.355Z,1029.71
2023-04-19T00:37:49.706Z,1029.70
2023-04-19T00:38:52.804Z,1029.67
2023-04-19T00:39:57.025Z,1029.65
2023-04-19T00:41:01.194Z,1029.66
2023-04-19T00:42:05.418Z,1029.61
2023-04-19T00:43:09.611Z,1029.61
2023-04-19T00:44:14.139Z,1029.58
2023-04-19T00:45:21.030Z,1029.59
2023-04-19T00:46:24.414Z,1029.57
2023-04-19T00:47:28.559Z,1029.56
2023-04-19T00:48:32.714Z,1029.58
2023-04-19T00:49:37.099Z,1029.57
2023-04-19T00:50:41.293Z,1029.58
2023-04-19T00:51:45.556Z,1029.58
2023-04-19T00:52:49.828Z,1029.58
2023-04-19T00:53:54.178Z,1029.57
2023-04-19T00:54:58.326Z,1029.56
2023-04-19T00:56:02.565Z,1029.54
2023-04-19T00:57:06.871Z,1029.55
2023-04-19T00:58:11.035Z,1029.55
2023-04-19T00:59:15.146Z,1029.56
2023-04-19T01:00:19.476Z,1029.53
2023-04-19T01:01:23.712Z,1029.54
2023-04-19T01:02:27.944Z,1029.55
2023-04-19T01:03:32.178Z,1029.55
2023-04-19T01:04:36.331Z,1029.56
2023-04-19T01:05:40.460Z,1029.54
2023-04-19T01:06:44.710Z,1029.51
2023-04-19T01:07:48.899Z,1029.52
2023-04-19T01:08:53.111Z,1029.53
2023-04-19T01:09:57.420Z,1029.52
2023-04-19T01:11:01.684Z,1029.51
2023-04-19T01:12:05.885Z,1029.51
2023-04-19T01:13:10.158Z,1029.50
2023-04-19T01:14:14.678Z,1029.49
2023-04-19T01:15:18.503Z,1029.49
2023-04-19T01:16:22.842Z,1029.48
2023-04-19T01:17:27.183Z,1029.48
2023-04-19T01:18:31.331Z,1029.48
2023-04-19T01:19:35.651Z,1029.45
2023-04-19T01:20:39.910Z,1029.45
2023-04-19T01:21:44.064Z,1029.43
2023-04-19T01:22:48.267Z,1029.43
2023-04-19T01:23:52.487Z,1029.41
2023-04-19T01:24:56.666Z,1029.40
2023-04-19T01:26:00.882Z,1029.39
2023-04-19T01:27:05.175Z,1029.36
2023-04-19T01:28:09.323Z,1029.31
2023-04-19T01:29:13.531Z,1029.34
2023-04-19T01:30:17.773Z,1029.32
2023-04-19T01:31:22.055Z,1029.32
2023-04-19T01:32:26.289Z,1029.30
2023-04-19T01:33:30.431Z,1029.30
2023-04-19T01:34:34.645Z,1029.31
2023-04-19T01:35:38.767Z,1029.29
2023-04-19T01:36:43.035Z,1029.28
2023-04-19T01:37:47.233Z,1029.29
2023-04-19T01:38:51.439Z,1029.26
2023-04-19T01:39:55.763Z,1029.28
2023-04-19T01:41:00.031Z,1029.27
2023-04-19T01:42:04.326Z,1029.26
2023-04-19T01:43:08.444Z,1029.24
2023-04-19T01:44:12.916Z,1029.24
2023-04-19T01:45:16.914Z,1029.24
2023-04-19T01:46:21.079Z,1029.21
2023-04-19T01:47:25.403Z,1029.18
2023-04-19T01:48:29.609Z,1029.17
2023-04-19T01:49:33.818Z,1029.17
2023-04-19T01:50:38.068Z,1029.15
2023-04-19T01:51:42.289Z,1029.15
2023-04-19T01:52:46.594Z,1029.15
2023-04-19T01:53:50.915Z,1029.11
2023-04-19T01:54:55.107Z,1029.09
2023-04-19T01:55:59.409Z,1029.08
2023-04-19T01:57:03.665Z,1029.05
2023-04-19T01:58:07.823Z,1029.05
2023-04-19T01:59:12.014Z,1029.03
2023-04-19T02:00:16.291Z,1029.01
2023-04-19T02:01:20.754Z,1029.03
2023-04-19T02:02:24.887Z,1028.99
2023-04-19T02:03:29.250Z,1028.99
2023-04-19T02:04:33.205Z,1028.99
2023-04-19T02:05:37.448Z,1028.97
2023-04-19T02:06:41.652Z,1028.94
2023-04-19T02:07:45.952Z,1028.93
2023-04-19T02:08:50.199Z,1028.95
2023-04-19T02:09:54.428Z,1028.93
2023-04-19T02:10:58.676Z,1028.90
2023-04-19T02:12:02.843Z,1028.94
2023-04-19T02:13:07.183Z,1028.92
2023-04-19T02:14:14.660Z,1028.89
2023-04-19T02:15:17.674Z,1028.90
2023-04-19T02:16:21.892Z,1028.88
2023-04-19T02:17:26.175Z,1028.90
2023-04-19T02:18:33.381Z,1028.87
2023-04-19T02:19:36.722Z,1028.88
2023-04-19T02:20:40.780Z,1028.87
2023-04-19T02:21:45.013Z,1028.87
2023-04-19T02:22:49.275Z,1028.86
2023-04-19T02:23:53.467Z,1028.87
2023-04-19T02:24:57.668Z,1028.84
2023-04-19T02:26:01.884Z,1028.82
2023-04-19T02:27:06.152Z,1028.80
2023-04-19T02:28:10.331Z,1028.82
2023-04-19T02:29:14.621Z,1028.81
2023-04-19T02:30:18.713Z,1028.82
2023-04-19T02:31:23.042Z,1028.78
2023-04-19T02:32:27.357Z,1028.77
2023-04-19T02:33:31.445Z,1028.78
2023-04-19T02:34:35.731Z,1028.78
2023-04-19T02:35:39.919Z,1028.76
2023-04-19T02:36:44.139Z,1028.75
2023-04-19T02:37:48.436Z,1028.75
2023-04-19T02:38:52.492Z,1028.72
2023-04-19T02:39:56.918Z,1028.69
2023-04-19T02:41:00.998Z,1028.70
2023-04-19T02:42:05.260Z,1028.69
2023-04-19T02:43:09.543Z,1028.67
2023-04-19T02:44:13.850Z,1028.64
2023-04-19T02:45:18.002Z,1028.67
2023-04-19T02:46:22.243Z,1028.66
2023-04-19T02:47:26.434Z,1028.66
2023-04-19T02:48:30.622Z,1028.65
2023-04-19T02:49:34.939Z,1028.65
2023-04-19T02:50:39.129Z,1028.63
2023-04-19T02:51:43.206Z,1028.64
2023-04-19T02:52:47.584Z,1028.61
2023-04-19T02:53:51.823Z,1028.59
2023-04-19T02:54:56.019Z,1028.59
2023-04-19T02:56:00.195Z,1028.58
2023-04-19T02:57:04.507Z,1028.55
2023-04-19T02:58:08.698Z,1028.54
2023-04-19T02:59:12.916Z,1028.52
2023-04-19T03:00:17.175Z,1028.53
2023-04-19T03:01:21.431Z,1028.52
2023-04-19T03:02:25.647Z,1028.50
2023-04-19T03:03:30.083Z,1028.51
2023-04-19T03:04:34.386Z,1028.47
2023-04-19T03:05:38.452Z,1028.47
2023-04-19T03:06:42.638Z,1028.46
2023-04-19T03:07:46.853Z,1028.48
2023-04-19T03:08:51.111Z,1028.45
2023-04-19T03:11:22.401Z,1028.44
2023-04-19T03:12:26.546Z,1028.40
2023-04-19T03:13:30.649Z,1028.41
2023-04-19T03:14:34.809Z,1028.37
2023-04-19T03:15:39.203Z,1028.38
2023-04-19T03:16:43.424Z,1028.37
2023-04-19T03:17:47.746Z,1028.34
2023-04-19T03:18:51.955Z,1028.34
2023-04-19T03:19:56.153Z,1028.34
2023-04-19T03:21:00.337Z,1028.30
2023-04-19T03:22:04.534Z,1028.30
2023-04-19T03:23:08.848Z,1028.30
2023-04-19T03:24:13.426Z,1028.30
2023-04-19T03:25:17.446Z,1028.30
2023-04-19T03:26:21.699Z,1028.27
2023-04-19T03:27:25.869Z,1028.27
2023-04-19T03:28:30.101Z,1028.27
2023-04-19T03:29:34.345Z,1028.28
2023-04-19T03:30:38.562Z,1028.25
2023-04-19T03:31:42.845Z,1028.24
2023-04-19T03:32:47.007Z,1028.23
2023-04-19T03:33:51.245Z,1028.23
2023-04-19T03:34:55.396Z,1028.22
2023-04-19T03:35:59.579Z,1028.20
2023-04-19T03:37:03.851Z,1028.21
2023-04-19T03:38:08.125Z,1028.20
2023-04-19T03:39:12.352Z,1028.21
2023-04-19T03:40:16.543Z,1028.19
2023-04-19T03:41:20.661Z,1028.18
2023-04-19T03:42:26.463Z,1028.19
2023-04-19T03:43:29.203Z,1028.21
2023-04-19T03:44:33.285Z,1028.19
2023-04-19T03:45:40.559Z,1028.17
2023-04-19T03:46:43.827Z,1028.19
2023-04-19T03:47:48.106Z,1028.21
2023-04-19T03:48:52.210Z,1028.21
2023-04-19T03:49:56.534Z,1028.21
2023-04-19T03:51:00.750Z,1028.20
2023-04-19T03:52:04.998Z,1028.20
2023-04-19T03:53:09.216Z,1028.17
2023-04-19T03:54:13.557Z,1028.18
2023-04-19T03:55:17.603Z,1028.20
2023-04-19T03:56:21.947Z,1028.22
2023-04-19T03:57:26.367Z,1028.21
2023-04-19T03:58:30.369Z,1028.22
2023-04-19T03:59:34.697Z,1028.21
2023-04-19T04:00:38.916Z,1028.17
2023-04-19T04:01:43.160Z,1028.19
2023-04-19T04:02:47.543Z,1028.16
2023-04-19T04:03:51.741Z,1028.17
2023-04-19T04:04:55.991Z,1028.19
2023-04-19T04:06:00.022Z,1028.18
2023-04-19T04:07:04.317Z,1028.19
2023-04-19T04:08:08.499Z,1028.19
2023-04-19T04:09:12.711Z,1028.21
2023-04-19T04:10:16.937Z,1028.19
2023-04-19T04:11:21.219Z,1028.19
2023-04-19T04:12:25.483Z,1028.19
2023-04-19T04:13:29.773Z,1028.19
2023-04-19T04:14:33.940Z,1028.16
2023-04-19T04:15:38.122Z,1028.16
2023-04-19T04:16:42.481Z,1028.17
2023-04-19T04:17:46.654Z,1028.20
2023-04-19T04:18:50.790Z,1028.19
2023-04-19T04:19:54.997Z,1028.22
2023-04-19T04:20:59.187Z,1028.20
2023-04-19T04:22:03.532Z,1028.19
2023-04-19T04:23:07.714Z,1028.18
2023-04-19T04:24:11.909Z,1028.18
2023-04-19T04:25:16.083Z,1028.21
2023-04-19T04:26:20.275Z,1028.20
2023-04-19T04:27:24.596Z,1028.19
2023-04-19T04:28:42.828Z,1028.20
2023-04-19T04:29:45.616Z,1028.23
2023-04-19T04:30:49.784Z,1028.22
2023-04-19T04:31:53.890Z,1028.22
2023-04-19T04:32:58.393Z,1028.23
2023-04-19T04:34:02.429Z,1028.22
2023-04-19T04:35:06.601Z,1028.23
2023-04-19T04:36:10.911Z,1028.24
2023-04-19T04:37:15.191Z,1028.23
2023-04-19T04:38:24.708Z,1028.20
2023-04-19T04:39:23.635Z,1028.20
2023-04-19T04:40:27.830Z,1028.19
2023-04-19T04:41:32.160Z,1028.19
2023-04-19T04:42:36.418Z,1028.17
2023-04-19T04:43:40.653Z,1028.18
2023-04-19T04:44:44.876Z,1028.17
2023-04-19T04:45:49.155Z,1028.18
2023-04-19T04:46:53.319Z,1028.16
2023-04-19T04:47:57.710Z,1028.15
2023-04-19T04:49:01.894Z,1028.14
2023-04-19T04:50:06.096Z,1028.13
2023-04-19T04:51:10.324Z,1028.15
2023-04-19T04:52:14.522Z,1028.14
2023-04-19T04:53:18.788Z,1028.13
2023-04-19T04:54:23.050Z,1028.11
2023-04-19T04:55:27.278Z,1028.11
2023-04-19T04:56:31.549Z,1028.13
2023-04-19T04:57:35.685Z,1028.10
2023-04-19T04:58:39.998Z,1028.16
2023-04-19T04:59:44.202Z,1028.11
2023-04-19T05:00:48.516Z,1028.14
2023-04-19T05:01:58.815Z,1028.11
2023-04-19T05:03:01.746Z,1028.11
2023-04-19T05:04:05.762Z,1028.08
2023-04-19T05:05:09.934Z,1028.10
2023-04-19T05:06:14.170Z,1028.10
2023-04-19T05:07:18.373Z,1028.10
2023-04-19T05:08:22.792Z,1028.08
2023-04-19T05:09:27.021Z,1028.06
2023-04-19T05:10:31.242Z,1028.06
2023-04-19T05:11:35.400Z,1028.06
2023-04-19T05:12:39.656Z,1028.05
2023-04-19T05:13:43.915Z,1028.06
2023-04-19T05:14:48.094Z,1028.05
2023-04-19T05:15:55.374Z,1028.04
2023-04-19T05:16:58.604Z,1028.03
2023-04-19T05:18:03.042Z,1028.05
2023-04-19T05:19:07.089Z,1028.02
2023-04-19T05:20:11.386Z,1027.99
2023-04-19T05:21:15.590Z,1027.95
2023-04-19T05:22:19.908Z,1027.97
2023-04-19T05:23:24.089Z,1027.99
2023-04-19T05:24:28.347Z,1027.98
2023-04-19T05:25:32.606Z,1027.95
2023-04-19T05:26:36.818Z,1027.92
2023-04-19T05:27:41.156Z,1027.91
2023-04-19T05:28:45.326Z,1027.88
2023-04-19T05:29:49.550Z,1027.91
2023-04-19T05:30:53.788Z,1027.92
2023-04-19T05:31:58.090Z,1027.91
2023-04-19T05:33:02.431Z,1027.89
2023-04-19T05:34:06.593Z,1027.92
2023-04-19T05:35:10.847Z,1027.92
2023-04-19T05:36:15.052Z,1027.90
2023-04-19T05:37:19.327Z,1027.90
2023-04-19T05:38:23.564Z,1027.84
2023-04-19T05:39:27.782Z,1027.84
2023-04-19T05:40:32.013Z,1027.86
2023-04-19T05:41:36.360Z,1027.81
2023-04-19T05:42:40.481Z,1027.83
2023-04-19T05:43:44.791Z,1027.83
2023-04-19T05:44:49.080Z,1027.80
2023-04-19T05:45:53.426Z,1027.75
2023-04-19T05:46:57.583Z,1027.78
2023-04-19T05:48:01.892Z,1027.78
2023-04-19T05:49:06.029Z,1027.74
2023-04-19T05:50:10.334Z,1027.75
2023-04-19T05:51:14.573Z,1027.76
2023-04-19T05:52:18.787Z,1027.76
2023-04-19T05:53:23.112Z,1027.76
2023-04-19T05:54:27.426Z,1027.73
2023-04-19T05:55:31.593Z,1027.69
2023-04-19T05:56:35.925Z,1027.71
2023-04-19T05:57:40.221Z,1027.70
2023-04-19T05:58:44.459Z,1027.66
2023-04-19T05:59:48.618Z,1027.65
2023-04-19T06:00:56.068Z,1027.65
2023-04-19T06:01:59.501Z,1027.65
2023-04-19T06:03:03.704Z,1027.65
2023-04-19T06:04:08.152Z,1027.65
2023-04-19T06:05:12.356Z,1027.62
2023-04-19T06:06:16.526Z,1027.63
2023-04-19T06:08:24.872Z,1027.60
2023-04-19T06:09:29.102Z,1027.63
2023-04-19T06:10:44.490Z,1027.61
2023-04-19T06:11:47.063Z,1027.60
2023-04-19T06:12:41.830Z,1027.61
2023-04-19T06:13:46.164Z,1027.57
2023-04-19T06:14:50.457Z,1027.53
2023-04-19T06:15:54.692Z,1027.53
2023-04-19T06:16:58.960Z,1027.54
2023-04-19T06:18:03.302Z,1027.53
2023-04-19T06:19:07.482Z,1027.52
2023-04-19T06:20:11.865Z,1027.49
2023-04-19T06:21:16.116Z,1027.49
2023-04-19T06:22:20.327Z,1027.44
2023-04-19T06:23:24.680Z,1027.41
2023-04-19T06:24:28.867Z,1027.39
2023-04-19T06:25:33.120Z,1027.37
2023-04-19T06:26:37.460Z,1027.35
2023-04-19T06:27:41.678Z,1027.35
2023-04-19T06:28:45.942Z,1027.37
2023-04-19T06:29:51.364Z,1027.35
2023-04-19T06:30:54.530Z,1027.33
2023-04-19T06:31:58.925Z,1027.32
2023-04-19T06:33:03.327Z,1027.31
2023-04-19T06:34:07.382Z,1027.31
2023-04-19T06:35:11.717Z,1027.26
2023-04-19T06:36:15.937Z,1027.27
2023-04-19T06:37:20.278Z,1027.26
2023-04-19T06:38:24.481Z,1027.29
2023-04-19T06:39:28.762Z,1027.26
2023-04-19T06:40:33.014Z,1027.25
2023-04-19T06:41:37.266Z,1027.27
2023-04-19T06:42:41.501Z,1027.26
2023-04-19T06:43:45.919Z,1027.25
2023-04-19T06:44:50.011Z,1027.25
2023-04-19T06:45:54.312Z,1027.29
2023-04-19T06:46:58.483Z,1027.25
2023-04-19T06:48:02.868Z,1027.27
2023-04-19T06:49:07.109Z,1027.30
2023-04-19T06:50:11.334Z,1027.29
2023-04-19T06:51:15.684Z,1027.31
2023-04-19T06:52:19.985Z,1027.30
2023-04-19T06:53:24.271Z,1027.33
2023-04-19T06:54:28.585Z,1027.25
2023-04-19T06:55:32.870Z,1027.27
2023-04-19T06:56:37.078Z,1027.25
2023-04-19T06:57:41.320Z,1027.25
2023-04-19T06:58:45.597Z,1027.23
2023-04-19T06:59:49.994Z,1027.23
2023-04-19T07:00:54.056Z,1027.21
2023-04-19T07:01:58.516Z,1027.19
2023-04-19T07:03:02.787Z,1027.17
2023-04-19T07:04:07.062Z,1027.15
2023-04-19T07:05:11.167Z,1027.12
2023-04-19T07:06:15.437Z,1027.10
2023-04-19T07:07:19.649Z,1027.10
2023-04-19T07:08:25.060Z,1027.12
2023-04-19T07:09:28.206Z,1027.10
2023-04-19T07:10:32.451Z,1027.06
2023-04-19T07:11:36.750Z,1027.05
2023-04-19T07:12:41.117Z,1027.10
2023-04-19T07:13:45.276Z,1027.07
2023-04-19T07:14:49.565Z,1027.04
2023-04-19T07:15:53.859Z,1027.01
2023-04-19T07:16:58.055Z,1027.03
2023-04-19T07:18:02.463Z,1027.03
2023-04-19T07:19:06.705Z,1027.00
2023-04-19T07:20:10.836Z,1026.97
2023-04-19T07:21:15.079Z,1026.97
2023-04-19T07:22:19.469Z,1026.93
2023-04-19T07:23:23.694Z,1026.95
2023-04-19T07:24:27.897Z,1026.92
2023-04-19T07:25:32.124Z,1026.92
2023-04-19T07:26:36.378Z,1026.87
2023-04-19T07:27:40.646Z,1026.88
2023-04-19T07:28:44.913Z,1026.84
2023-04-19T07:29:49.134Z,1026.86
2023-04-19T07:30:53.319Z,1026.82
2023-04-19T07:31:57.626Z,1026.78
2023-04-19T07:33:01.897Z,1026.72
2023-04-19T07:34:06.146Z,1026.78
2023-04-19T07:35:10.429Z,1026.73
2023-04-19T07:36:14.679Z,1026.71
2023-04-19T07:37:18.939Z,1026.70
2023-04-19T07:38:23.322Z,1026.69
2023-04-19T07:39:27.560Z,1026.68
2023-04-19T07:40:31.816Z,1026.67
2023-04-19T07:41:36.525Z,1026.67
2023-04-19T07:42:40.357Z,1026.64
2023-04-19T07:43:44.768Z,1026.65
2023-04-19T07:44:49.004Z,1026.57
2023-04-19T07:45:56.453Z,1026.56
2023-04-19T07:47:13.960Z,1026.58
2023-04-19T07:48:16.889Z,1026.60
2023-04-19T07:49:21.134Z,1026.60
2023-04-19T07:50:25.389Z,1026.62
2023-04-19T07:51:29.626Z,1026.62
2023-04-19T07:52:33.946Z,1026.59
2023-04-19T07:53:38.075Z,1026.56
2023-04-19T07:54:42.480Z,1026.56
2023-04-19T07:55:46.736Z,1026.54
2023-04-19T07:56:50.987Z,1026.52
2023-04-19T07:57:55.355Z,1026.49
2023-04-19T07:59:07.515Z,1026.44
2023-04-19T08:00:03.861Z,1026.49
2023-04-19T08:01:08.249Z,1026.46
2023-04-19T08:02:12.537Z,1026.42
2023-04-19T08:03:17.028Z,1026.42
2023-04-19T08:04:21.640Z,1026.39
2023-04-19T08:05:25.294Z,1026.40
2023-04-19T08:06:29.373Z,1026.40
2023-04-19T08:07:33.799Z,1026.42
2023-04-19T08:08:38.050Z,1026.46
2023-04-19T08:09:42.385Z,1026.36
2023-04-19T08:10:46.624Z,1026.36
2023-04-19T08:11:50.876Z,1026.42
2023-04-19T08:13:05.020Z,1026.35
2023-04-19T08:14:09.162Z,1026.36
2023-04-19T08:15:19.778Z,1026.39
2023-04-19T08:17:25.616Z,1026.36
2023-04-19T08:18:16.611Z,1026.35
2023-04-19T08:19:21.017Z,1026.31
2023-04-19T08:20:25.044Z,1026.29
2023-04-19T08:21:38.497Z,1026.31
2023-04-19T08:22:33.627Z,1026.32
2023-04-19T08:23:47.928Z,1026.23
2023-04-19T08:24:42.192Z,1026.22
2023-04-19T08:25:46.516Z,1026.19
2023-04-19T08:26:50.814Z,1026.16
2023-04-19T08:27:55.082Z,1026.09
2023-04-19T08:28:59.394Z,1026.07
2023-04-19T08:30:03.734Z,1026.07
2023-04-19T08:31:08.065Z,1026.06
2023-04-19T08:32:12.464Z,1026.05
2023-04-19T08:33:16.658Z,1026.08
2023-04-19T08:34:20.984Z,1026.07
2023-04-19T08:35:25.225Z,1026.06
2023-04-19T08:36:39.048Z,1026.03
2023-04-19T08:37:33.793Z,1026.06
2023-04-19T08:38:38.031Z,1026.00
2023-04-19T08:39:42.338Z,1026.05
2023-04-19T08:40:46.661Z,1025.94
2023-04-19T08:42:04.813Z,1025.96
2023-04-19T08:42:55.316Z,1025.99
2023-04-19T08:43:59.554Z,1026.00
2023-04-19T08:45:26.176Z,1026.03
2023-04-19T08:46:08.159Z,1025.96
2023-04-19T08:47:20.257Z,1025.98
2023-04-19T08:48:22.706Z,1025.90
2023-04-19T08:49:25.554Z,1025.91
2023-04-19T08:50:34.657Z,1025.97
2023-04-19T08:51:34.022Z,1025.94
2023-04-19T08:52:51.697Z,1025.91
2023-04-19T08:53:43.198Z,1025.96
2023-04-19T08:54:47.514Z,1025.94
2023-04-19T08:56:56.128Z,1025.93
2023-04-19T08:58:00.406Z,1025.84
2023-04-19T09:00:08.993Z,1025.91
2023-04-19T09:01:22.805Z,1025.94
2023-04-19T09:02:17.714Z,1025.89
2023-04-19T09:03:22.267Z,1025.88
2023-04-19T09:04:35.639Z,1025.85
2023-04-19T09:05:30.784Z,1025.80
2023-04-19T09:06:35.309Z,1025.77
2023-04-19T09:07:39.034Z,1025.84
2023-04-19T09:08:43.307Z,1025.79
2023-04-19T09:10:00.010Z,1025.83
2023-04-19T09:10:51.928Z,1025.80
2023-04-19T09:11:56.239Z,1025.77
2023-04-19T09:13:00.544Z,1025.78
2023-04-19T09:14:04.892Z,1025.73
2023-04-19T09:15:09.233Z,1025.71
2023-04-19T09:16:13.535Z,1025.73
2023-04-19T09:17:17.835Z,1025.75
2023-04-19T09:18:22.010Z,1025.73
2023-04-19T09:19:26.718Z,1025.69
2023-04-19T09:20:30.738Z,1025.69
2023-04-19T09:21:35.040Z,1025.67
2023-04-19T09:22:39.319Z,1025.69
2023-04-19T09:23:43.630Z,1025.73
2023-04-19T09:26:15.111Z,1025.67
2023-04-19T09:26:56.441Z,1025.66
2023-04-19T09:28:00.812Z,1025.66
2023-04-19T09:29:05.035Z,1025.60
2023-04-19T09:30:17.525Z,1025.62
2023-04-19T09:31:33.158Z,1025.63
2023-04-19T09:32:17.971Z,1025.58
2023-04-19T09:33:22.377Z,1025.55
2023-04-19T09:34:26.606Z,1025.50
2023-04-19T09:35:30.923Z,1025.48
2023-04-19T09:36:35.206Z,1025.44
2023-04-19T09:38:43.922Z,1025.56
2023-04-19T09:39:48.165Z,1025.55
2023-04-19T09:40:58.533Z,1025.53
2023-04-19T09:42:01.548Z,1025.46
2023-04-19T09:43:17.884Z,1025.45
2023-04-19T09:44:47.393Z,1025.45
2023-04-19T09:45:29.226Z,1025.43
2023-04-19T09:46:18.703Z,1025.40
2023-04-19T09:47:23.000Z,1025.42
2023-04-19T09:48:30.301Z,1025.39
2023-04-19T09:49:46.096Z,1025.41
2023-04-19T09:50:50.505Z,1025.36
2023-04-19T09:51:42.176Z,1025.41
2023-04-19T09:52:46.478Z,1025.38
2023-04-19T09:53:50.805Z,1025.26
2023-04-19T09:54:55.032Z,1025.26
2023-04-19T09:56:02.136Z,1025.24
2023-04-19T09:57:03.646Z,1025.34
2023-04-19T09:58:08.043Z,1025.26
2023-04-19T09:59:20.311Z,1025.27
2023-04-19T10:00:16.525Z,1025.28
2023-04-19T10:01:20.885Z,1025.35
2023-04-19T10:02:25.473Z,1025.29
2023-04-19T10:03:29.679Z,1025.31
2023-04-19T10:04:54.738Z,1025.31
2023-04-19T10:05:38.133Z,1025.24
2023-04-19T10:07:06.742Z,1025.26
2023-04-19T10:07:46.731Z,1025.14
2023-04-19T10:08:51.289Z,1025.16
2023-04-19T10:09:59.899Z,1025.26
2023-04-19T10:10:59.739Z,1025.16
2023-04-19T10:12:21.010Z,1025.10
2023-04-19T10:13:18.950Z,1025.14
2023-04-19T10:14:12.599Z,1025.09
2023-04-19T10:15:16.799Z,1025.08
2023-04-19T10:16:21.431Z,1025.10
2023-04-19T10:17:25.568Z,1025.11
2023-04-19T10:18:29.900Z,1025.12
2023-04-19T10:19:34.162Z,1025.07
2023-04-19T10:20:38.489Z,1025.07
2023-04-19T10:21:42.837Z,1025.07
2023-04-19T10:22:47.252Z,1025.01
2023-04-19T10:24:05.676Z,1025.05
2023-04-19T10:25:09.121Z,1025.04
2023-04-19T10:26:13.079Z,1025.02
2023-04-19T10:27:17.446Z,1025.03
2023-04-19T10:28:21.782Z,1025.10
2023-04-19T10:29:26.125Z,1025.09
2023-04-19T10:30:30.347Z,1025.01
2023-04-19T10:31:34.683Z,1025.00
2023-04-19T10:32:38.944Z,1024.95
2023-04-19T10:33:46.312Z,1024.94
2023-04-19T10:34:49.638Z,1024.93
2023-04-19T10:35:54.024Z,1025.01
2023-04-19T10:36:58.238Z,1024.94
2023-04-19T10:38:02.489Z,1024.95
2023-04-19T10:39:06.842Z,1025.02
2023-04-19T10:40:11.182Z,1024.96
2023-04-19T10:41:17.413Z,1024.91
2023-04-19T10:42:19.727Z,1024.93
2023-04-19T10:43:27.177Z,1024.94
2023-04-19T10:44:30.545Z,1024.91
2023-04-19T10:45:34.770Z,1024.88
2023-04-19T10:46:39.093Z,1024.93
2023-04-19T10:47:46.449Z,1024.86
2023-04-19T10:48:49.953Z,1024.91
2023-04-19T10:49:54.362Z,1024.86
2023-04-19T10:50:58.587Z,1024.88
2023-04-19T10:52:03.904Z,1024.90
2023-04-19T10:53:07.763Z,1024.90
2023-04-19T10:54:12.055Z,1024.84
2023-04-19T10:55:16.279Z,1024.90
2023-04-19T10:56:20.847Z,1024.88
2023-04-19T10:57:32.012Z,1024.85
2023-04-19T10:58:34.874Z,1024.86
2023-04-19T10:59:39.139Z,1024.81
2023-04-19T11:00:43.359Z,1024.78
2023-04-19T11:01:47.787Z,1024.82
2023-04-19T11:02:52.080Z,1024.74
2023-04-19T11:03:56.478Z,1024.78
2023-04-19T11:05:00.559Z,1024.78
2023-04-19T11:06:04.906Z,1024.76
2023-04-19T11:07:09.132Z,1024.80
2023-04-19T11:08:13.384Z,1024.80
2023-04-19T11:09:17.675Z,1024.75
2023-04-19T11:10:27.967Z,1024.75
2023-04-19T11:11:30.932Z,1024.74
2023-04-19T11:12:35.217Z,1024.74
2023-04-19T11:13:39.466Z,1024.72
2023-04-19T11:14:43.930Z,1024.74
2023-04-19T11:15:48.145Z,1024.71
2023-04-19T11:16:52.472Z,1024.67
2023-04-19T11:18:11.366Z,1024.62
2023-04-19T11:19:00.983Z,1024.64
2023-04-19T11:20:08.504Z,1024.55
2023-04-19T11:21:11.871Z,1024.60
2023-04-19T11:22:16.218Z,1024.59
2023-04-19T11:23:20.338Z,1024.58
2023-04-19T11:24:30.764Z,1024.56
2023-04-19T11:25:33.693Z,1024.56
2023-04-19T11:26:37.925Z,1024.55
2023-04-19T11:27:42.204Z,1024.51
2023-04-19T11:28:46.480Z,1024.56
2023-04-19T11:29:50.711Z,1024.51
2023-04-19T11:30:55.164Z,1024.52
2023-04-19T11:31:59.322Z,1024.46
2023-04-19T11:33:06.697Z,1024.51
2023-04-19T11:34:09.998Z,1024.50
2023-04-19T11:35:14.333Z,1024.53
2023-04-19T11:36:18.676Z,1024.50
2023-04-19T11:37:22.882Z,1024.60
2023-04-19T11:38:27.233Z,1024.53
2023-04-19T11:39:31.588Z,1024.53
2023-04-19T11:40:35.914Z,1024.54
2023-04-19T11:41:40.133Z,1024.55
2023-04-19T11:42:44.416Z,1024.62
2023-04-19T11:43:48.711Z,1024.62
2023-04-19T11:44:52.992Z,1024.53
2023-04-19T11:45:57.339Z,1024.49
2023-04-19T11:47:01.703Z,1024.54
2023-04-19T11:48:06.255Z,1024.59
2023-04-19T11:49:10.228Z,1024.54
2023-04-19T11:50:14.624Z,1024.48
2023-04-19T11:51:18.931Z,1024.53
2023-04-19T11:52:23.284Z,1024.55
2023-04-19T11:53:27.525Z,1024.51
2023-04-19T11:54:31.835Z,1024.55
2023-04-19T11:55:36.105Z,1024.51
2023-04-19T11:56:40.474Z,1024.53
2023-04-19T11:57:44.853Z,1024.47
2023-04-19T11:58:49.143Z,1024.48
2023-04-19T12:00:07.482Z,1024.51
2023-04-19T12:01:10.721Z,1024.41
2023-04-19T12:02:14.882Z,1024.46
2023-04-19T12:03:19.283Z,1024.46
2023-04-19T12:04:23.623Z,1024.51
2023-04-19T12:05:30.937Z,1024.53
2023-04-19T12:06:37.077Z,1024.52
2023-04-19T12:07:40.505Z,1024.49
2023-04-19T12:08:44.855Z,1024.40
2023-04-19T12:09:49.127Z,1024.43
2023-04-19T12:10:53.380Z,1024.43
2023-04-19T12:11:57.709Z,1024.47
2023-04-19T12:13:02.094Z,1024.44
2023-04-19T12:14:06.312Z,1024.39
2023-04-19T12:15:10.674Z,1024.38
2023-04-19T12:16:15.005Z,1024.37
2023-04-19T12:17:19.349Z,1024.36
2023-04-19T12:18:23.815Z,1024.25
2023-04-19T12:19:27.983Z,1024.26
2023-04-19T12:20:32.287Z,1024.19
2023-04-19T12:21:36.571Z,1024.16
2023-04-19T12:22:40.919Z,1024.12
2023-04-19T12:23:45.226Z,1024.09
2023-04-19T12:24:49.613Z,1024.15
2023-04-19T12:25:53.913Z,1024.21
2023-04-19T12:26:59.156Z,1024.14
2023-04-19T12:28:02.456Z,1024.12
2023-04-19T12:29:06.845Z,1024.10
2023-04-19T12:30:11.041Z,1024.04
2023-04-19T12:31:15.420Z,1024.04
2023-04-19T12:32:19.684Z,1024.04
2023-04-19T12:33:26.929Z,1024.03
2023-04-19T12:34:30.450Z,1024.06
2023-04-19T12:35:34.650Z,1023.95
2023-04-19T12:36:42.022Z,1024.04
2023-04-19T12:37:45.501Z,1023.96
2023-04-19T12:38:49.728Z,1023.95
2023-04-19T12:39:55.956Z,1023.98
2023-04-19T12:40:58.426Z,1023.98
2023-04-19T12:42:02.767Z,1023.98
2023-04-19T12:43:07.092Z,1023.96
2023-04-19T12:44:11.351Z,1023.94
2023-04-19T12:45:15.621Z,1023.98
2023-04-19T12:46:20.020Z,1023.92
2023-04-19T12:47:24.273Z,1023.89
2023-04-19T12:48:28.605Z,1023.89
2023-04-19T12:49:32.987Z,1023.87
2023-04-19T12:50:37.249Z,1023.87
2023-04-19T12:51:41.644Z,1023.84
2023-04-19T12:52:46.003Z,1023.85
2023-04-19T12:53:50.286Z,1023.84
2023-04-19T12:54:54.578Z,1023.85
2023-04-19T12:55:58.972Z,1023.82
2023-04-19T12:57:03.629Z,1023.84
2023-04-19T12:58:07.525Z,1023.74
2023-04-19T12:59:11.798Z,1023.75
2023-04-19T13:00:16.139Z,1023.74
2023-04-19T13:01:20.354Z,1023.74
2023-04-19T13:02:25.780Z,1023.71
2023-04-19T13:03:29.603Z,1023.77
2023-04-19T13:04:33.912Z,1023.72
2023-04-19T13:05:38.184Z,1023.68
2023-04-19T13:06:42.550Z,1023.69